Time;durP1;ratioP1;P1;durP2;ratioP2;P2;SDS_P1;SDS_P2;PMS_P1;PMS_P2;Temp;Humidity;BMP_temperature;BMP_pressure;BME280_temperature;BME280_humidity;BME280_pressure;Samples;Min_cycle;Max_cycle;Signal;HPM_P1;HPM_P2
2024/01/09 00:00:19;;;;;;;7.40;5.47;;;;;;;;;;5073152;28;20189;-61
2024/01/09 00:02:46;;;;;;;14.52;7.10;;;;;;;;;;5072925;28;20214;-61
2024/01/09 00:05:13;;;;;;;9.98;6.25;;;;;;;;;;5072963;28;20285;-62
2024/01/09 00:07:40;;;;;;;11.23;7.45;;;;;;;;;;5073155;28;20545;-61
2024/01/09 00:10:09;;;;;;;12.25;7.38;;;;;;;;;;5073177;28;20220;-61
2024/01/09 00:12:35;;;;;;;8.18;6.93;;;;;;;;;;5073022;28;20228;-62
2024/01/09 00:15:06;;;;;;;12.50;7.10;;;;;;;;;;5072914;28;20624;-61
2024/01/09 00:17:33;;;;;;;14.52;7.32;;;;;;;;;;5072998;28;20193;-61
2024/01/09 00:20:00;;;;;;;12.35;8.02;;;;;;;;;;5072844;28;20192;-61
2024/01/09 00:22:27;;;;;;;11.73;7.10;;;;;;;;;;5072969;28;20294;-61
2024/01/09 00:24:54;;;;;;;15.50;8.95;;;;;;;;;;5072934;28;20299;-61
2024/01/09 00:27:21;;;;;;;11.70;5.75;;;;;;;;;;5072901;28;20283;-61
2024/01/09 00:29:48;;;;;;;12.77;7.03;;;;;;;;;;5073230;28;20284;-62
2024/01/09 00:32:16;;;;;;;10.82;7.30;;;;;;;;;;5072679;28;20199;-62
2024/01/09 00:34:43;;;;;;;13.80;7.63;;;;;;;;;;5073011;28;20189;-62
2024/01/09 00:37:10;;;;;;;15.43;6.85;;;;;;;;;;5072817;28;20189;-62
2024/01/09 00:39:37;;;;;;;10.40;6.13;;;;;;;;;;5072795;28;20644;-62
2024/01/09 00:42:04;;;;;;;12.50;6.95;;;;;;;;;;5073743;28;20284;-62
2024/01/09 00:44:31;;;;;;;11.32;6.80;;;;;;;;;;5076714;28;20616;-62
2024/01/09 00:46:58;;;;;;;9.63;6.90;;;;;;;;;;5076562;28;20279;-62
2024/01/09 00:49:26;;;;;;;10.60;6.40;;;;;;;;;;5076784;28;20559;-62
2024/01/09 00:51:53;;;;;;;12.90;6.50;;;;;;;;;;5076692;28;20542;-62
2024/01/09 00:54:20;;;;;;;11.77;6.63;;;;;;;;;;5076606;28;20199;-62
2024/01/09 00:56:47;;;;;;;10.23;6.18;;;;;;;;;;5076401;28;20200;-62
2024/01/09 00:59:14;;;;;;;11.20;6.47;;;;;;;;;;5076322;28;20198;-62
2024/01/09 01:01:41;;;;;;;8.73;6.45;;;;;;;;;;5076499;28;20189;-62
2024/01/09 01:04:08;;;;;;;8.88;5.13;;;;;;;;;;5076341;28;20224;-62
2024/01/09 01:06:41;;;;;;;8.18;5.53;;;;;;;;;;5076191;28;20747;-62
2024/01/09 01:09:08;;;;;;;10.35;5.95;;;;;;;;;;5076248;28;20212;-62
2024/01/09 01:11:36;;;;;;;9.05;6.53;;;;;;;;;;5076206;28;20277;-62
2024/01/09 01:14:03;;;;;;;15.38;6.78;;;;;;;;;;5076039;28;20312;-62
2024/01/09 01:16:30;;;;;;;10.35;6.03;;;;;;;;;;5076240;28;20237;-62
2024/01/09 01:18:57;;;;;;;12.98;7.03;;;;;;;;;;5075938;28;20281;-62
2024/01/09 01:21:24;;;;;;;9.00;6.63;;;;;;;;;;5075827;28;20308;-62
2024/01/09 01:23:52;;;;;;;9.93;5.85;;;;;;;;;;5075831;28;20308;-62
2024/01/09 01:26:19;;;;;;;7.45;5.72;;;;;;;;;;5075811;28;20276;-62
2024/01/09 01:28:46;;;;;;;8.10;5.55;;;;;;;;;;5076073;28;20225;-62
2024/01/09 01:31:13;;;;;;;8.75;5.55;;;;;;;;;;5075965;28;20196;-62
2024/01/09 01:33:40;;;;;;;12.35;5.50;;;;;;;;;;5075869;28;20231;-62
2024/01/09 01:36:07;;;;;;;9.25;5.78;;;;;;;;;;5075766;28;20619;-62
2024/01/09 01:38:34;;;;;;;11.80;6.30;;;;;;;;;;5075719;28;20197;-62
2024/01/09 01:41:02;;;;;;;10.40;5.68;;;;;;;;;;5075609;28;20280;-62
2024/01/09 01:43:29;;;;;;;7.88;5.40;;;;;;;;;;5075740;28;20219;-62
2024/01/09 01:45:56;;;;;;;10.80;6.57;;;;;;;;;;5075662;28;20195;-62
2024/01/09 01:48:23;;;;;;;11.57;6.35;;;;;;;;;;5075548;28;20225;-62
2024/01/09 01:50:50;;;;;;;13.23;6.40;;;;;;;;;;5075577;28;20284;-62
2024/01/09 01:53:18;;;;;;;11.00;6.20;;;;;;;;;;5074976;28;20200;-62
2024/01/09 01:55:45;;;;;;;12.60;7.07;;;;;;;;;;5075617;28;20280;-62
2024/01/09 01:58:13;;;;;;;9.15;6.30;;;;;;;;;;5075505;28;20196;-62
2024/01/09 02:00:40;;;;;;;8.70;6.50;;;;;;;;;;5075408;28;20185;-62
2024/01/09 02:03:07;;;;;;;10.20;6.22;;;;;;;;;;5075247;28;20300;-62
2024/01/09 02:05:34;;;;;;;10.57;6.03;;;;;;;;;;5075201;28;20199;-62
2024/01/09 02:08:02;;;;;;;10.00;6.03;;;;;;;;;;5075054;28;20280;-62
2024/01/09 02:10:29;;;;;;;11.05;6.35;;;;;;;;;;5075310;28;20276;-62
2024/01/09 02:12:56;;;;;;;11.18;6.38;;;;;;;;;;5075169;28;20280;-62
2024/01/09 02:15:24;;;;;;;8.20;6.25;;;;;;;;;;5075220;28;20281;-62
2024/01/09 02:17:51;;;;;;;15.05;7.40;;;;;;;;;;5075005;28;20545;-62
2024/01/09 02:20:22;;;;;;;9.20;5.95;;;;;;;;;;5074778;28;20308;-62
2024/01/09 02:22:49;;;;;;;10.27;7.05;;;;;;;;;;5074725;28;20212;-62
2024/01/09 02:25:16;;;;;;;8.88;5.32;;;;;;;;;;5075234;28;20280;-62
2024/01/09 02:27:49;;;;;;;10.10;6.63;;;;;;;;;;5074933;28;20660;-62
2024/01/09 02:30:18;;;;;;;8.90;5.57;;;;;;;;;;5074847;28;20280;-62
2024/01/09 02:32:45;;;;;;;10.93;6.03;;;;;;;;;;5074676;28;20193;-62
2024/01/09 02:35:12;;;;;;;10.43;5.93;;;;;;;;;;5074540;28;20616;-62
2024/01/09 02:37:39;;;;;;;13.68;6.53;;;;;;;;;;5074709;28;20192;-62
2024/01/09 02:40:08;;;;;;;10.27;6.05;;;;;;;;;;5074814;28;20195;-62
2024/01/09 02:42:35;;;;;;;13.75;7.22;;;;;;;;;;5074611;28;20652;-62
2024/01/09 02:45:02;;;;;;;10.15;6.00;;;;;;;;;;5074361;28;20223;-62
2024/01/09 02:47:30;;;;;;;9.27;6.53;;;;;;;;;;5074327;28;20280;-62
2024/01/09 02:49:57;;;;;;;10.98;6.70;;;;;;;;;;5074228;28;20627;-62
2024/01/09 02:52:24;;;;;;;14.05;7.15;;;;;;;;;;5074415;28;20185;-62
2024/01/09 02:54:51;;;;;;;11.65;6.70;;;;;;;;;;5074329;28;20193;-62
2024/01/09 02:57:18;;;;;;;12.27;6.32;;;;;;;;;;5074202;28;20292;-62
2024/01/09 02:59:45;;;;;;;10.30;6.40;;;;;;;;;;5074184;28;20373;-62
2024/01/09 03:02:12;;;;;;;12.40;6.95;;;;;;;;;;5073999;28;20195;-62
2024/01/09 03:04:40;;;;;;;11.77;7.32;;;;;;;;;;5073258;28;20659;-62
2024/01/09 03:07:07;;;;;;;10.77;6.07;;;;;;;;;;5074077;28;20284;-62
2024/01/09 03:09:34;;;;;;;10.70;7.05;;;;;;;;;;5073987;28;20185;-61
2024/01/09 03:12:02;;;;;;;13.40;7.43;;;;;;;;;;5073939;28;20627;-62
2024/01/09 03:14:29;;;;;;;12.10;7.03;;;;;;;;;;5073758;28;20189;-62
2024/01/09 03:16:56;;;;;;;13.93;7.72;;;;;;;;;;5074238;28;20189;-62
2024/01/09 03:19:23;;;;;;;9.82;5.88;;;;;;;;;;5073878;28;20284;-62
2024/01/09 03:21:51;;;;;;;14.57;7.30;;;;;;;;;;5073487;28;20220;-62
2024/01/09 03:24:18;;;;;;;15.60;6.57;;;;;;;;;;5073637;28;20217;-62
2024/01/09 03:26:45;;;;;;;11.40;7.30;;;;;;;;;;5073596;28;20193;-62
2024/01/09 03:29:12;;;;;;;12.05;7.80;;;;;;;;;;5073440;28;20215;-62
2024/01/09 03:31:39;;;;;;;11.18;6.60;;;;;;;;;;5073378;28;20648;-62
2024/01/09 03:34:05;;;;;;;11.32;6.75;;;;;;;;;;5073624;28;20194;-62
2024/01/09 03:36:32;;;;;;;10.57;6.68;;;;;;;;;;5073335;28;20713;-62
2024/01/09 03:39:01;;;;;;;10.88;5.40;;;;;;;;;;5073421;28;20280;-62
2024/01/09 03:41:28;;;;;;;11.68;6.40;;;;;;;;;;5073364;28;20190;-62
2024/01/09 03:43:55;;;;;;;12.20;5.72;;;;;;;;;;5073133;28;20217;-62
2024/01/09 03:46:22;;;;;;;10.48;6.45;;;;;;;;;;5073469;28;20275;-62
2024/01/09 03:48:49;;;;;;;9.20;6.00;;;;;;;;;;5073325;28;20281;-62
2024/01/09 03:51:16;;;;;;;15.60;6.50;;;;;;;;;;5073116;28;20641;-63
2024/01/09 03:53:43;;;;;;;11.32;6.07;;;;;;;;;;5073084;28;20653;-62
2024/01/09 03:56:11;;;;;;;15.25;7.38;;;;;;;;;;5073099;28;20186;-62
2024/01/09 03:58:38;;;;;;;12.07;7.10;;;;;;;;;;5072990;28;20304;-62
2024/01/09 04:01:05;;;;;;;12.52;6.70;;;;;;;;;;5073232;28;20197;-62
2024/01/09 04:03:32;;;;;;;13.82;6.65;;;;;;;;;;5073065;28;20307;-62
2024/01/09 04:05:59;;;;;;;11.75;7.53;;;;;;;;;;5073050;28;20276;-62
2024/01/09 04:08:26;;;;;;;12.95;8.13;;;;;;;;;;5072971;28;20185;-62
2024/01/09 04:10:53;;;;;;;14.30;7.22;;;;;;;;;;5073009;28;20195;-62
2024/01/09 04:13:22;;;;;;;11.23;7.15;;;;;;;;;;5072872;28;20271;-62
2024/01/09 04:15:49;;;;;;;12.38;6.70;;;;;;;;;;5072909;28;20262;-62
2024/01/09 04:18:15;;;;;;;15.55;9.40;;;;;;;;;;5073051;28;20223;-62
2024/01/09 04:20:43;;;;;;;10.65;7.35;;;;;;;;;;5072681;28;20227;-62
2024/01/09 04:23:10;;;;;;;13.48;7.88;;;;;;;;;;5072679;28;20189;-61
2024/01/09 04:25:37;;;;;;;13.88;7.15;;;;;;;;;;5072695;28;20279;-62
2024/01/09 04:28:04;;;;;;;17.50;8.60;;;;;;;;;;5073060;28;20189;-62
2024/01/09 04:30:32;;;;;;;12.63;6.97;;;;;;;;;;5072888;28;20275;-62
2024/01/09 04:32:59;;;;;;;11.88;6.78;;;;;;;;;;5072832;28;20196;-62
2024/01/09 04:35:26;;;;;;;14.98;7.60;;;;;;;;;;5072855;28;20243;-62
2024/01/09 04:37:53;;;;;;;14.80;8.00;;;;;;;;;;5072712;28;20276;-62
2024/01/09 04:40:20;;;;;;;13.70;7.20;;;;;;;;;;5072858;28;20193;-62
2024/01/09 04:42:47;;;;;;;12.93;7.70;;;;;;;;;;5072836;28;20224;-62
2024/01/09 04:45:14;;;;;;;15.23;7.50;;;;;;;;;;5072685;28;20572;-62
2024/01/09 04:47:42;;;;;;;14.50;7.28;;;;;;;;;;5072671;28;20626;-62
2024/01/09 04:50:09;;;;;;;13.88;8.05;;;;;;;;;;5072568;28;20275;-62
2024/01/09 04:52:37;;;;;;;14.15;7.30;;;;;;;;;;5072565;28;20197;-62
2024/01/09 04:55:04;;;;;;;12.40;6.40;;;;;;;;;;5072700;28;20197;-62
2024/01/09 04:57:31;;;;;;;11.18;7.90;;;;;;;;;;5072700;28;20239;-62
2024/01/09 04:59:58;;;;;;;23.55;11.75;;;;;;;;;;5072617;28;20193;-62
2024/01/09 05:02:25;;;;;;;16.20;9.50;;;;;;;;;;5072492;28;20300;-62
2024/01/09 05:04:53;;;;;;;18.02;8.38;;;;;;;;;;5072462;28;20213;-61
2024/01/09 05:07:20;;;;;;;10.02;7.65;;;;;;;;;;5072316;28;20561;-62
2024/01/09 05:09:47;;;;;;;14.73;8.20;;;;;;;;;;5072559;28;20276;-62
2024/01/09 05:12:14;;;;;;;15.55;8.75;;;;;;;;;;5072465;28;20272;-61
2024/01/09 05:14:41;;;;;;;12.27;7.63;;;;;;;;;;5072432;28;20575;-62
2024/01/09 05:17:08;;;;;;;15.23;7.72;;;;;;;;;;5072337;28;20647;-62
2024/01/09 05:19:35;;;;;;;13.93;7.30;;;;;;;;;;5072297;28;20272;-62
2024/01/09 05:22:03;;;;;;;16.70;7.75;;;;;;;;;;5071989;28;20226;-62
2024/01/09 05:24:30;;;;;;;11.18;7.85;;;;;;;;;;5072326;28;20295;-62
2024/01/09 05:26:57;;;;;;;20.10;8.88;;;;;;;;;;5072311;28;20201;-62
2024/01/09 05:29:24;;;;;;;15.40;7.88;;;;;;;;;;5075326;28;20615;-62
2024/01/09 05:31:51;;;;;;;12.77;8.05;;;;;;;;;;5075806;28;20280;-61
2024/01/09 05:34:18;;;;;;;11.63;6.95;;;;;;;;;;5075699;28;20189;-62
2024/01/09 05:36:45;;;;;;;14.23;8.32;;;;;;;;;;5075961;28;20193;-62
2024/01/09 05:39:13;;;;;;;15.20;7.95;;;;;;;;;;5074924;28;20272;-62
2024/01/09 05:41:40;;;;;;;18.55;10.38;;;;;;;;;;5075519;28;20723;-62
2024/01/09 05:44:07;;;;;;;19.95;10.52;;;;;;;;;;5075548;28;20213;-62
2024/01/09 05:46:34;;;;;;;20.17;9.98;;;;;;;;;;5075525;28;20217;-62
2024/01/09 05:49:01;;;;;;;19.00;9.52;;;;;;;;;;5075413;28;20197;-62
2024/01/09 05:51:28;;;;;;;14.35;7.85;;;;;;;;;;5075490;28;20193;-61
2024/01/09 05:53:55;;;;;;;23.77;10.95;;;;;;;;;;5075499;28;20552;-62
2024/01/09 05:56:24;;;;;;;13.70;8.95;;;;;;;;;;5075447;28;20199;-62
2024/01/09 05:58:51;;;;;;;12.05;7.70;;;;;;;;;;5075264;28;20704;-62
2024/01/09 06:01:18;;;;;;;17.48;8.48;;;;;;;;;;5075066;28;20643;-62
2024/01/09 06:03:44;;;;;;;19.25;8.82;;;;;;;;;;5075030;28;20649;-62
2024/01/09 06:06:11;;;;;;;19.67;8.80;;;;;;;;;;5075130;28;20276;-62
2024/01/09 06:08:38;;;;;;;18.27;8.10;;;;;;;;;;5075201;28;20186;-61
2024/01/09 06:11:05;;;;;;;14.98;8.50;;;;;;;;;;5075046;28;20544;-62
2024/01/09 06:13:33;;;;;;;13.70;7.60;;;;;;;;;;5074943;28;20192;-62
2024/01/09 06:16:00;;;;;;;14.70;8.13;;;;;;;;;;5074919;28;20283;-62
2024/01/09 06:18:27;;;;;;;20.67;9.73;;;;;;;;;;5075104;28;20280;-62
2024/01/09 06:20:54;;;;;;;17.30;9.40;;;;;;;;;;5074807;28;20224;-61
2024/01/09 06:23:21;;;;;;;23.10;11.45;;;;;;;;;;5074862;28;20276;-63
2024/01/09 06:25:48;;;;;;;19.95;9.70;;;;;;;;;;5074767;28;20315;-62
2024/01/09 06:28:15;;;;;;;24.55;11.07;;;;;;;;;;5074688;28;20276;-61
2024/01/09 06:30:43;;;;;;;21.98;10.60;;;;;;;;;;5074449;28;20276;-61
2024/01/09 06:33:10;;;;;;;16.20;9.27;;;;;;;;;;5074698;28;20189;-62
2024/01/09 06:35:37;;;;;;;18.08;9.38;;;;;;;;;;5074588;28;20225;-62
2024/01/09 06:38:04;;;;;;;19.40;8.82;;;;;;;;;;5074484;28;20193;-62
2024/01/09 06:40:31;;;;;;;19.17;9.20;;;;;;;;;;5074432;28;20282;-62
2024/01/09 06:42:58;;;;;;;20.35;9.65;;;;;;;;;;5074352;28;20737;-62
2024/01/09 06:45:25;;;;;;;18.20;9.63;;;;;;;;;;5074107;28;20224;-62
2024/01/09 06:47:53;;;;;;;16.52;9.32;;;;;;;;;;5074320;28;20276;-62
2024/01/09 06:50:20;;;;;;;16.20;10.32;;;;;;;;;;5074412;28;20201;-61
2024/01/09 06:52:47;;;;;;;18.30;9.32;;;;;;;;;;5074144;28;20191;-62
2024/01/09 06:55:14;;;;;;;19.35;10.25;;;;;;;;;;5074146;28;20272;-61
2024/01/09 06:57:41;;;;;;;18.45;10.93;;;;;;;;;;5073927;28;20860;-62
2024/01/09 07:00:08;;;;;;;18.92;12.57;;;;;;;;;;5074223;28;20280;-61
2024/01/09 07:02:35;;;;;;;21.13;13.50;;;;;;;;;;5074038;28;20281;-62
2024/01/09 07:05:04;;;;;;;17.88;12.52;;;;;;;;;;5073868;28;20205;-62
2024/01/09 07:07:31;;;;;;;19.67;12.15;;;;;;;;;;5073720;28;20729;-62
2024/01/09 07:09:58;;;;;;;20.75;11.30;;;;;;;;;;5073840;28;20276;-63
2024/01/09 07:12:25;;;;;;;24.40;12.95;;;;;;;;;;5073685;28;20228;-62
2024/01/09 07:14:52;;;;;;;25.52;11.70;;;;;;;;;;5073617;28;20603;-61
2024/01/09 07:17:19;;;;;;;20.48;12.65;;;;;;;;;;5069903;28;20272;-61
2024/01/09 07:19:46;;;;;;;23.50;12.00;;;;;;;;;;5073228;28;20197;-62
2024/01/09 07:22:14;;;;;;;29.27;12.32;;;;;;;;;;5073328;28;20276;-61
2024/01/09 07:24:41;;;;;;;20.23;10.82;;;;;;;;;;5073500;28;20303;-62
2024/01/09 07:27:08;;;;;;;21.40;11.75;;;;;;;;;;5073711;28;20280;-62
2024/01/09 07:29:35;;;;;;;17.88;10.65;;;;;;;;;;5073635;28;20199;-62
2024/01/09 07:32:03;;;;;;;20.40;11.45;;;;;;;;;;5073578;28;20193;-62
2024/01/09 07:34:30;;;;;;;17.67;11.15;;;;;;;;;;5073439;28;20193;-61
2024/01/09 07:36:56;;;;;;;28.75;11.23;;;;;;;;;;5073469;28;20663;-62
2024/01/09 07:39:25;;;;;;;17.42;11.05;;;;;;;;;;5073243;28;20199;-62
2024/01/09 07:41:52;;;;;;;21.67;11.10;;;;;;;;;;5073479;28;20239;-61
2024/01/09 07:44:20;;;;;;;18.35;11.30;;;;;;;;;;5073303;28;20185;-61
2024/01/09 07:46:47;;;;;;;21.80;11.57;;;;;;;;;;5073114;28;20228;-62
2024/01/09 07:49:14;;;;;;;21.55;10.30;;;;;;;;;;5072918;28;20185;-62
2024/01/09 07:51:41;;;;;;;31.00;13.38;;;;;;;;;;5072537;28;20319;-62
2024/01/09 07:54:08;;;;;;;21.55;15.70;;;;;;;;;;5073376;28;20189;-61
2024/01/09 07:56:36;;;;;;;32.15;14.60;;;;;;;;;;5073110;28;20276;-61
2024/01/09 07:59:03;;;;;;;24.25;12.30;;;;;;;;;;5073109;28;20591;-61
2024/01/09 08:01:31;;;;;;;23.13;12.52;;;;;;;;;;5073070;28;20185;-62
2024/01/09 08:03:58;;;;;;;24.83;11.55;;;;;;;;;;5072907;28;20193;-62
2024/01/09 08:06:24;;;;;;;24.77;12.70;;;;;;;;;;5072724;28;20411;-61
2024/01/09 08:08:51;;;;;;;28.70;13.93;;;;;;;;;;5072740;28;20185;-62
2024/01/09 08:11:18;;;;;;;27.45;15.40;;;;;;;;;;5072975;28;20227;-62
2024/01/09 08:13:47;;;;;;;31.90;15.30;;;;;;;;;;5072912;28;20285;-63
2024/01/09 08:16:14;;;;;;;29.40;15.18;;;;;;;;;;5072691;28;20189;-61
2024/01/09 08:18:41;;;;;;;31.35;15.00;;;;;;;;;;5072775;28;20280;-61
2024/01/09 08:21:08;;;;;;;26.80;15.45;;;;;;;;;;5072641;28;20307;-61
2024/01/09 08:23:36;;;;;;;28.25;14.48;;;;;;;;;;5072286;28;20736;-61
2024/01/09 08:26:03;;;;;;;21.88;13.02;;;;;;;;;;5072605;28;20223;-59
2024/01/09 08:28:30;;;;;;;28.88;13.45;;;;;;;;;;5072562;28;20276;-61
2024/01/09 08:30:58;;;;;;;22.00;12.52;;;;;;;;;;5072788;28;20302;-53
2024/01/09 08:33:25;;;;;;;24.40;12.75;;;;;;;;;;5072370;28;20280;-59
2024/01/09 08:35:52;;;;;;;29.45;12.73;;;;;;;;;;5072732;28;20655;-62
2024/01/09 08:38:19;;;;;;;28.50;13.82;;;;;;;;;;5072703;28;20189;-62
2024/01/09 08:40:51;;;;;;;18.70;11.30;;;;;;;;;;5072499;28;20277;-61
2024/01/09 08:43:17;;;;;;;20.17;12.30;;;;;;;;;;5072681;28;20246;-62
2024/01/09 08:45:46;;;;;;;25.50;12.38;;;;;;;;;;5072492;28;20219;-62
2024/01/09 08:48:14;;;;;;;22.70;12.63;;;;;;;;;;5072457;28;20192;-63
2024/01/09 08:50:41;;;;;;;23.52;12.95;;;;;;;;;;5072428;28;20200;-64
2024/01/09 08:53:08;;;;;;;23.67;12.75;;;;;;;;;;5072543;28;20227;-61
2024/01/09 08:55:35;;;;;;;28.25;13.68;;;;;;;;;;5072509;28;20201;-61
2024/01/09 08:58:02;;;;;;;29.48;15.40;;;;;;;;;;5072423;28;20240;-62
2024/01/09 09:00:29;;;;;;;24.77;12.43;;;;;;;;;;5072213;28;20199;-63
2024/01/09 09:02:56;;;;;;;32.47;13.93;;;;;;;;;;5073131;28;20185;-62
2024/01/09 09:05:24;;;;;;;28.35;15.50;;;;;;;;;;5076145;28;20309;-64
2024/01/09 09:07:51;;;;;;;28.02;15.80;;;;;;;;;;5076205;28;20525;-60
2024/01/09 09:10:18;;;;;;;32.95;15.52;;;;;;;;;;5076190;28;20196;-61
2024/01/09 09:12:45;;;;;;;31.48;16.13;;;;;;;;;;5076059;28;20280;-62
2024/01/09 09:15:12;;;;;;;35.50;15.95;;;;;;;;;;5075889;28;20235;-63
2024/01/09 09:17:39;;;;;;;65.82;29.27;;;;;;;;;;5075909;28;20641;-62
2024/01/09 09:20:07;;;;;;;34.60;18.42;;;;;;;;;;5075737;28;20312;-60
2024/01/09 09:22:35;;;;;;;40.15;18.15;;;;;;;;;;5075855;28;20222;-62
2024/01/09 09:25:02;;;;;;;65.47;30.58;;;;;;;;;;5075662;28;20284;-63
2024/01/09 09:27:29;;;;;;;30.60;16.15;;;;;;;;;;5075677;28;20193;-62
2024/01/09 09:29:56;;;;;;;40.88;17.55;;;;;;;;;;5075579;28;20228;-61
2024/01/09 09:32:23;;;;;;;29.83;15.75;;;;;;;;;;5075639;28;20615;-63
2024/01/09 09:34:50;;;;;;;35.53;19.85;;;;;;;;;;5075536;28;20232;-61
2024/01/09 09:37:17;;;;;;;33.05;18.70;;;;;;;;;;5075455;28;20196;-61
2024/01/09 09:39:45;;;;;;;34.08;17.67;;;;;;;;;;5075575;28;20307;-63
2024/01/09 09:42:12;;;;;;;30.65;15.70;;;;;;;;;;5075298;28;20190;-62
2024/01/09 09:44:40;;;;;;;29.30;16.38;;;;;;;;;;5075409;28;20280;-63
2024/01/09 09:47:09;;;;;;;35.22;15.52;;;;;;;;;;5075301;28;20636;-61
2024/01/09 09:49:38;;;;;;;31.00;17.48;;;;;;;;;;5075441;28;20648;-61
2024/01/09 09:52:05;;;;;;;31.05;14.43;;;;;;;;;;5075462;28;20686;-61
2024/01/09 09:54:33;;;;;;;28.40;15.02;;;;;;;;;;5075177;28;20189;-61
2024/01/09 09:57:01;;;;;;;28.35;15.85;;;;;;;;;;5075061;28;20193;-61
2024/01/09 09:59:28;;;;;;;31.27;15.52;;;;;;;;;;5075293;28;20218;-60
2024/01/09 10:01:55;;;;;;;26.90;15.32;;;;;;;;;;5075325;28;20272;-60
2024/01/09 10:04:29;;;;;;;26.67;13.75;;;;;;;;;;5075214;28;20191;-61
2024/01/09 10:06:56;;;;;;;25.85;13.32;;;;;;;;;;5074980;28;20307;-62
2024/01/09 10:09:23;;;;;;;23.40;12.98;;;;;;;;;;5074833;28;20280;-61
2024/01/09 10:11:52;;;;;;;31.60;14.98;;;;;;;;;;5075133;28;20197;-63
2024/01/09 10:14:20;;;;;;;26.58;13.70;;;;;;;;;;5074667;28;20200;-61
2024/01/09 10:16:51;;;;;;;23.73;12.32;;;;;;;;;;5075047;28;20617;-64
2024/01/09 10:19:18;;;;;;;37.40;16.38;;;;;;;;;;5074897;28;20212;-62
2024/01/09 10:21:45;;;;;;;28.05;14.05;;;;;;;;;;5074603;28;20316;-63
2024/01/09 10:24:13;;;;;;;25.58;14.27;;;;;;;;;;5074586;28;20193;-61
2024/01/09 10:26:40;;;;;;;28.05;14.63;;;;;;;;;;5074769;28;20231;-60
2024/01/09 10:29:09;;;;;;;26.65;14.00;;;;;;;;;;5074685;28;20217;-61
2024/01/09 10:31:38;;;;;;;25.25;13.80;;;;;;;;;;5074568;28;20227;-65
2024/01/09 10:34:05;;;;;;;33.45;16.02;;;;;;;;;;5074617;28;20242;-61
2024/01/09 10:36:33;;;;;;;26.15;13.55;;;;;;;;;;5074476;28;20243;-64
2024/01/09 10:39:04;;;;;;;23.95;12.00;;;;;;;;;;5074589;28;20189;-61
2024/01/09 10:41:31;;;;;;;36.13;14.50;;;;;;;;;;5073991;28;20231;-62
2024/01/09 10:44:00;;;;;;;29.02;15.20;;;;;;;;;;5074227;28;20284;-65
2024/01/09 10:46:29;;;;;;;26.10;13.95;;;;;;;;;;5074227;28;20338;-66
2024/01/09 10:48:58;;;;;;;23.17;13.15;;;;;;;;;;5073890;28;20199;-68
2024/01/09 10:51:25;;;;;;;25.27;13.00;;;;;;;;;;5074213;28;20201;-64
2024/01/09 10:53:52;;;;;;;28.38;13.63;;;;;;;;;;5074161;28;20221;-66
2024/01/09 10:56:21;;;;;;;29.23;14.43;;;;;;;;;;5074140;28;20196;-65
2024/01/09 10:58:48;;;;;;;22.58;13.60;;;;;;;;;;5074035;28;20204;-68
2024/01/09 11:01:15;;;;;;;26.85;14.55;;;;;;;;;;5074022;28;20197;-62
2024/01/09 11:03:42;;;;;;;25.38;13.07;;;;;;;;;;5073980;28;20276;-63
2024/01/09 11:06:11;;;;;;;26.73;13.38;;;;;;;;;;5074004;28;20304;-63
2024/01/09 11:08:39;;;;;;;27.75;13.85;;;;;;;;;;5073885;28;20220;-62
2024/01/09 11:11:09;;;;;;;22.73;14.05;;;;;;;;;;5073819;28;20235;-62
2024/01/09 11:13:38;;;;;;;27.75;14.10;;;;;;;;;;5073623;28;20276;-62
2024/01/09 11:16:08;;;;;;;29.80;16.58;;;;;;;;;;5073542;28;20194;-61
2024/01/09 11:18:36;;;;;;;22.77;13.77;;;;;;;;;;5073811;28;20203;-61
2024/01/09 11:21:03;;;;;;;23.65;13.57;;;;;;;;;;5073372;28;20759;-61
2024/01/09 11:23:57;;;;;;;28.35;14.35;;;;;;;;;;5073646;28;20185;-60
2024/01/09 11:26:27;;;;;;;23.63;12.23;;;;;;;;;;5058570;28;20223;-68
2024/01/09 11:28:55;;;;;;;22.50;12.32;;;;;;;;;;5073962;28;20530;-62
2024/01/09 11:31:23;;;;;;;23.65;12.82;;;;;;;;;;5073438;28;20189;-63
2024/01/09 11:33:51;;;;;;;22.50;14.15;;;;;;;;;;5073522;28;20196;-59
2024/01/09 11:36:25;;;;;;;25.23;13.63;;;;;;;;;;5073094;28;20548;-66
2024/01/09 11:38:53;;;;;;;22.58;13.48;;;;;;;;;;5072998;28;20193;-70
2024/01/09 11:41:22;;;;;;;20.88;11.27;;;;;;;;;;5073281;28;20557;-62
2024/01/09 11:44:07;;;;;;;20.90;12.00;;;;;;;;;;5073245;28;20534;-62
2024/01/09 11:46:36;;;;;;;17.10;10.88;;;;;;;;;;5072998;28;20638;-62
2024/01/09 11:49:03;;;;;;;25.85;13.02;;;;;;;;;;5072546;28;20724;-62
2024/01/09 11:51:31;;;;;;;21.38;12.38;;;;;;;;;;5072785;28;20623;-67
2024/01/09 11:53:59;;;;;;;21.90;12.30;;;;;;;;;;5072595;28;20446;-69
2024/01/09 11:56:26;;;;;;;17.80;11.55;;;;;;;;;;5072949;28;20197;-67
2024/01/09 11:58:54;;;;;;;21.90;11.57;;;;;;;;;;5073042;28;20195;-64
2024/01/09 12:01:21;;;;;;;24.65;12.88;;;;;;;;;;5073130;28;20193;-65
2024/01/09 12:03:53;;;;;;;20.15;11.75;;;;;;;;;;5072848;28;20234;-61
2024/01/09 12:06:21;;;;;;;20.13;11.05;;;;;;;;;;5072961;28;20292;-65
2024/01/09 12:08:48;;;;;;;20.23;11.57;;;;;;;;;;5073077;28;20185;-62
2024/01/09 12:11:15;;;;;;;24.92;12.05;;;;;;;;;;5072758;28;20279;-61
2024/01/09 12:13:42;;;;;;;20.10;10.68;;;;;;;;;;5072587;28;20281;-64
2024/01/09 12:16:16;;;;;;;15.18;10.10;;;;;;;;;;5072569;28;20214;-63
2024/01/09 12:18:47;;;;;;;19.25;10.73;;;;;;;;;;5073195;28;20193;-60
2024/01/09 12:21:15;;;;;;;19.45;10.85;;;;;;;;;;5072461;28;20227;-62
2024/01/09 12:23:42;;;;;;;20.65;11.70;;;;;;;;;;5072991;28;20196;-64
2024/01/09 12:26:09;;;;;;;18.77;10.35;;;;;;;;;;5072571;28;20289;-61
2024/01/09 12:28:37;;;;;;;25.17;12.40;;;;;;;;;;5072762;28;20200;-63
2024/01/09 12:31:04;;;;;;;16.98;10.02;;;;;;;;;;5072582;28;20190;-65
2024/01/09 12:33:31;;;;;;;16.73;10.05;;;;;;;;;;5072864;28;20236;-65
2024/01/09 12:35:59;;;;;;;16.98;11.20;;;;;;;;;;5072670;28;20556;-62
2024/01/09 12:38:27;;;;;;;17.02;10.15;;;;;;;;;;5076173;28;20216;-63
2024/01/09 12:40:58;;;;;;;16.63;10.27;;;;;;;;;;5076515;28;20195;-63
2024/01/09 12:43:25;;;;;;;18.35;10.32;;;;;;;;;;5076432;28;20185;-63
2024/01/09 12:45:52;;;;;;;20.50;9.52;;;;;;;;;;5076540;28;20643;-64
2024/01/09 12:48:19;;;;;;;19.52;10.65;;;;;;;;;;5076514;28;20621;-62
2024/01/09 12:50:57;;;;;;;19.83;12.05;;;;;;;;;;5076581;28;20556;-65
2024/01/09 12:53:24;;;;;;;21.88;10.63;;;;;;;;;;5076591;28;20280;-63
2024/01/09 12:56:03;;;;;;;19.13;9.80;;;;;;;;;;5076456;28;20248;-62
2024/01/09 12:58:30;;;;;;;21.42;10.50;;;;;;;;;;5075992;28;20503;-65
2024/01/09 13:00:57;;;;;;;18.70;12.27;;;;;;;;;;5075376;28;20449;-61
2024/01/09 13:03:24;;;;;;;19.85;10.98;;;;;;;;;;5076176;28;20554;-64
2024/01/09 13:05:51;;;;;;;18.90;10.93;;;;;;;;;;5076046;28;20649;-62
2024/01/09 13:08:18;;;;;;;18.95;10.40;;;;;;;;;;5075812;28;20319;-62
2024/01/09 13:10:45;;;;;;;17.23;9.82;;;;;;;;;;5076590;28;20559;-65
2024/01/09 13:13:13;;;;;;;13.02;8.32;;;;;;;;;;5076182;28;20189;-66
2024/01/09 13:15:40;;;;;;;17.30;10.05;;;;;;;;;;5076146;28;20280;-69
2024/01/09 13:18:07;;;;;;;21.88;10.60;;;;;;;;;;5075802;28;20395;-64
2024/01/09 13:20:33;;;;;;;18.85;11.77;;;;;;;;;;5075152;28;20525;-65
2024/01/09 13:23:00;;;;;;;18.02;10.95;;;;;;;;;;5075711;28;20560;-62
2024/01/09 13:25:27;;;;;;;15.20;10.13;;;;;;;;;;5075760;28;20661;-62
2024/01/09 13:27:54;;;;;;;15.27;9.65;;;;;;;;;;5075651;28;20744;-62
2024/01/09 13:30:23;;;;;;;20.20;10.13;;;;;;;;;;5075759;28;20192;-64
2024/01/09 13:32:50;;;;;;;12.68;9.30;;;;;;;;;;5075838;28;20193;-65
2024/01/09 13:35:17;;;;;;;16.42;9.35;;;;;;;;;;5075698;28;20740;-63
2024/01/09 13:37:44;;;;;;;17.45;9.30;;;;;;;;;;5075461;28;20276;-65
2024/01/09 13:40:12;;;;;;;15.25;9.23;;;;;;;;;;5075610;28;20196;-64
2024/01/09 13:42:39;;;;;;;23.05;9.65;;;;;;;;;;5075682;28;20193;-63
2024/01/09 13:45:06;;;;;;;21.00;10.55;;;;;;;;;;5075563;28;20216;-65
2024/01/09 13:47:35;;;;;;;15.60;9.05;;;;;;;;;;5075257;28;20672;-63
2024/01/09 13:50:02;;;;;;;14.82;8.18;;;;;;;;;;5074546;28;20549;-62
2024/01/09 13:52:30;;;;;;;12.07;8.85;;;;;;;;;;5075522;28;20193;-64
2024/01/09 13:54:56;;;;;;;16.48;9.73;;;;;;;;;;5075382;28;20280;-64
2024/01/09 13:57:23;;;;;;;14.93;8.60;;;;;;;;;;5075282;28;20284;-62
2024/01/09 13:59:51;;;;;;;18.38;10.20;;;;;;;;;;5075211;28;20190;-63
2024/01/09 14:02:18;;;;;;;17.73;10.55;;;;;;;;;;5075236;28;20553;-63
2024/01/09 14:04:46;;;;;;;25.95;9.82;;;;;;;;;;5075031;28;20278;-61
2024/01/09 14:07:15;;;;;;;14.55;8.93;;;;;;;;;;5075048;28;20252;-62
2024/01/09 14:09:42;;;;;;;12.48;8.00;;;;;;;;;;5074976;28;20181;-61
2024/01/09 14:12:09;;;;;;;16.88;10.25;;;;;;;;;;5075054;28;20285;-61
2024/01/09 14:14:36;;;;;;;17.85;11.38;;;;;;;;;;5074978;28;20192;-62
2024/01/09 14:17:03;;;;;;;21.65;11.80;;;;;;;;;;5074923;28;20189;-62
2024/01/09 14:19:30;;;;;;;21.10;12.00;;;;;;;;;;5074792;28;20185;-61
2024/01/09 14:21:59;;;;;;;27.42;12.13;;;;;;;;;;5074183;28;20606;-61
2024/01/09 14:24:26;;;;;;;20.75;12.80;;;;;;;;;;5074815;28;20223;-61